Time;durP1;ratioP1;P1;durP2;ratioP2;P2;SDS_P1;SDS_P2;PMS_P1;PMS_P2;Temp;Humidity;BMP_temperature;BMP_pressure;BME280_temperature;BME280_humidity;BME280_pressure;Samples;Min_cycle;Max_cycle;Signal;HPM_P1;HPM_P2
2021/04/21 00:00:15;;;;;;;71.82;15.13;;;5.40;1.00;;;;;;5132617;27;20663;-69
2021/04/21 00:02:44;;;;;;;70.80;14.40;;;5.40;1.00;;;;;;5132536;27;20251;-69
2021/04/21 00:05:12;;;;;;;72.65;15.73;;;5.40;1.00;;;;;;5132971;27;20202;-69
2021/04/21 00:07:38;;;;;;;72.70;15.15;;;5.40;1.00;;;;;;5131965;27;20310;-69
2021/04/21 00:10:07;;;;;;;69.90;14.65;;;5.40;1.00;;;;;;5131781;27;20222;-69
2021/04/21 00:12:34;;;;;;;71.15;15.68;;;5.40;1.00;;;;;;5132204;27;20215;-69
2021/04/21 00:15:02;;;;;;;72.18;15.02;;;5.30;1.00;;;;;;5132324;27;20238;-69
2021/04/21 00:17:28;;;;;;;73.72;15.98;;;5.30;1.00;;;;;;5132420;27;20205;-69
2021/04/21 00:19:57;;;;;;;71.18;14.27;;;5.30;1.00;;;;;;5132382;27;20487;-69
2021/04/21 00:22:26;;;;;;;69.97;13.82;;;5.30;1.00;;;;;;5131952;27;20241;-69
2021/04/21 00:24:53;;;;;;;69.70;13.20;;;5.20;1.00;;;;;;5132389;27;20251;-69
2021/04/21 00:27:23;;;;;;;70.28;14.60;;;5.20;1.00;;;;;;5132310;27;20321;-68
2021/04/21 00:29:53;;;;;;;71.05;13.85;;;5.20;1.00;;;;;;5132214;27;20321;-69
2021/04/21 00:32:23;;;;;;;71.03;14.27;;;5.20;1.00;;;;;;5132381;27;20267;-68
2021/04/21 00:34:51;;;;;;;68.22;13.48;;;5.20;1.00;;;;;;5132047;27;20234;-69
2021/04/21 00:37:22;;;;;;;70.78;14.95;;;5.20;1.00;;;;;;5132255;27;20207;-69
2021/04/21 00:39:49;;;;;;;69.22;12.23;;;5.20;1.00;;;;;;5130913;27;20650;-69
2021/04/21 00:42:26;;;;;;;69.68;12.57;;;5.20;1.00;;;;;;5131777;27;20312;-69
2021/04/21 00:44:59;;;;;;;66.47;11.90;;;5.20;1.00;;;;;;5132031;27;20213;-69
2021/04/21 00:47:38;;;;;;;69.43;14.70;;;5.10;1.00;;;;;;5131885;27;20568;-68
2021/04/21 00:50:10;;;;;;;68.65;13.27;;;5.10;1.00;;;;;;5132366;27;20309;-69
2021/04/21 00:52:46;;;;;;;68.45;13.35;;;5.10;1.00;;;;;;5132062;27;20263;-68
2021/04/21 00:55:18;;;;;;;69.03;13.07;;;5.10;1.00;;;;;;5132036;27;20214;-69
2021/04/21 00:57:53;;;;;;;68.68;13.30;;;5.00;1.00;;;;;;5131850;27;20723;-68
2021/04/21 01:00:23;;;;;;;68.70;12.75;;;5.00;1.00;;;;;;5132085;27;20317;-69
2021/04/21 01:02:54;;;;;;;67.28;12.45;;;5.00;1.00;;;;;;5131749;27;20693;-68
2021/04/21 01:05:24;;;;;;;68.18;12.45;;;5.00;1.00;;;;;;5133710;27;20294;-69
2021/04/21 01:07:55;;;;;;;68.82;12.85;;;5.00;1.00;;;;;;5136126;27;20219;-69
2021/04/21 01:10:24;;;;;;;68.72;13.30;;;4.90;1.00;;;;;;5134718;27;20250;-68
2021/04/21 01:12:53;;;;;;;69.95;14.18;;;4.90;1.00;;;;;;5135415;27;20289;-69
2021/04/21 01:15:20;;;;;;;68.93;12.80;;;4.80;1.00;;;;;;5135108;27;20738;-69
2021/04/21 01:17:50;;;;;;;73.97;12.55;;;4.80;1.00;;;;;;5135865;27;20289;-69
2021/04/21 01:20:27;;;;;;;68.63;12.55;;;4.70;1.00;;;;;;5135530;27;20342;-68
2021/04/21 01:23:24;;;;;;;66.63;12.63;;;4.70;1.00;;;;;;5135773;27;20278;-68
2021/04/21 01:26:11;;;;;;;69.20;13.27;;;4.60;1.00;;;;;;5135627;27;20587;-68
2021/04/21 01:28:42;;;;;;;67.35;12.18;;;4.60;1.00;;;;;;5135159;27;20293;-69
2021/04/21 01:31:12;;;;;;;70.72;13.25;;;4.60;1.00;;;;;;5135687;27;20761;-68
2021/04/21 01:33:40;;;;;;;67.70;12.30;;;4.60;1.00;;;;;;5135383;27;20643;-69
2021/04/21 01:36:10;;;;;;;66.88;12.18;;;4.60;1.00;;;;;;5135483;27;20535;-69
2021/04/21 01:38:39;;;;;;;68.45;12.93;;;4.60;1.00;;;;;;5135153;27;20246;-68
2021/04/21 01:41:10;;;;;;;69.10;13.32;;;4.60;1.00;;;;;;5135055;27;20206;-68
2021/04/21 01:43:43;;;;;;;69.18;12.70;;;4.50;1.00;;;;;;5135099;27;20647;-69
2021/04/21 01:46:11;;;;;;;67.97;12.43;;;4.50;1.00;;;;;;5135217;27;20293;-69
2021/04/21 01:48:39;;;;;;;68.03;12.80;;;4.50;1.00;;;;;;5134837;27;20337;-68
2021/04/21 01:51:14;;;;;;;67.43;12.75;;;4.40;1.00;;;;;;5135260;27;20230;-69
2021/04/21 01:53:46;;;;;;;68.72;12.90;;;4.40;1.00;;;;;;5134804;27;20723;-69
2021/04/21 01:56:18;;;;;;;66.90;13.18;;;4.30;1.00;;;;;;5134777;27;20738;-68
2021/04/21 01:59:04;;;;;;;67.38;12.60;;;4.30;1.00;;;;;;5134738;27;20209;-69
2021/04/21 02:01:41;;;;;;;67.75;12.95;;;4.30;1.00;;;;;;5135051;27;20298;-68
2021/04/21 02:04:18;;;;;;;68.88;13.13;;;4.30;1.00;;;;;;5134801;27;20206;-68
2021/04/21 02:06:57;;;;;;;68.90;12.43;;;4.30;1.00;;;;;;5134760;27;20338;-68
2021/04/21 02:09:47;;;;;;;69.88;12.00;;;4.30;1.00;;;;;;5134409;27;20309;-68
2021/04/21 02:12:37;;;;;;;69.75;13.43;;;4.20;1.00;;;;;;5134779;27;20256;-69
2021/04/21 02:15:10;;;;;;;70.20;12.85;;;4.20;1.00;;;;;;5100605;27;20211;-68
2021/04/21 02:17:46;;;;;;;70.32;13.63;;;4.20;1.00;;;;;;5133978;27;20199;-69
2021/04/21 02:20:21;;;;;;;67.85;12.27;;;4.10;1.00;;;;;;5134587;27;20752;-68
2021/04/21 02:22:54;;;;;;;69.57;12.57;;;4.10;1.00;;;;;;5134306;27;20289;-68
2021/04/21 02:25:25;;;;;;;71.03;14.75;;;4.10;1.00;;;;;;5134126;27;20293;-68
2021/04/21 02:27:59;;;;;;;70.50;13.40;;;4.10;1.00;;;;;;5134239;27;20273;-69
2021/04/21 02:30:36;;;;;;;70.95;13.38;;;4.10;1.00;;;;;;5133813;27;20225;-68
2021/04/21 02:33:11;;;;;;;70.72;13.40;;;4.10;1.00;;;;;;5134165;27;20209;-68
2021/04/21 02:35:43;;;;;;;71.28;13.65;;;4.00;1.00;;;;;;5134119;27;20293;-68
2021/04/21 02:38:19;;;;;;;70.03;13.90;;;4.00;1.00;;;;;;5134295;27;20238;-68
2021/04/21 02:40:58;;;;;;;70.60;14.48;;;3.90;1.00;;;;;;5134538;27;20309;-68
2021/04/21 02:43:30;;;;;;;68.35;13.55;;;3.90;1.00;;;;;;5134138;27;20283;-69
2021/04/21 02:46:06;;;;;;;67.75;13.10;;;3.80;1.00;;;;;;5133958;27;20293;-68
2021/04/21 02:48:44;;;;;;;66.68;12.73;;;3.80;1.00;;;;;;5133847;27;20261;-68
2021/04/21 02:51:15;;;;;;;70.68;13.82;;;3.70;1.00;;;;;;5133981;27;20209;-68
2021/04/21 02:53:47;;;;;;;69.25;13.65;;;3.70;1.00;;;;;;5133804;27;20203;-68
2021/04/21 02:56:23;;;;;;;70.20;15.13;;;3.70;1.00;;;;;;5133811;27;20632;-68
2021/04/21 02:58:59;;;;;;;69.25;13.35;;;3.70;1.00;;;;;;5133951;27;20207;-68
2021/04/21 03:01:37;;;;;;;69.25;14.00;;;3.70;1.00;;;;;;5134051;27;20561;-68
2021/04/21 03:04:10;;;;;;;71.80;13.55;;;3.70;1.00;;;;;;5133404;27;20199;-68
2021/04/21 03:06:39;;;;;;;68.05;13.15;;;3.60;1.00;;;;;;5133475;27;20310;-68
2021/04/21 03:09:08;;;;;;;72.53;14.90;;;3.60;1.00;;;;;;5133289;27;20223;-68
2021/04/21 03:11:35;;;;;;;70.70;14.15;;;3.60;1.00;;;;;;5133698;27;20640;-68
2021/04/21 03:14:04;;;;;;;69.53;14.13;;;3.60;1.00;;;;;;5133185;27;20737;-68
2021/04/21 03:16:35;;;;;;;70.22;14.23;;;3.60;1.00;;;;;;5133663;27;20290;-68
2021/04/21 03:19:05;;;;;;;72.57;15.10;;;3.60;1.00;;;;;;5133163;27;20251;-68
2021/04/21 03:21:35;;;;;;;72.10;14.73;;;3.60;1.00;;;;;;5133206;27;20233;-68
2021/04/21 03:24:09;;;;;;;71.88;14.50;;;3.60;1.00;;;;;;5133251;27;20234;-68
2021/04/21 03:26:38;;;;;;;72.03;15.02;;;3.60;1.00;;;;;;5133262;27;20255;-68
2021/04/21 03:29:07;;;;;;;73.50;16.13;;;3.60;1.00;;;;;;5132127;27;20746;-68
2021/04/21 03:31:37;;;;;;;73.05;13.98;;;3.60;1.00;;;;;;5133171;27;20207;-68
2021/04/21 03:34:08;;;;;;;69.65;14.25;;;3.50;1.00;;;;;;5133028;27;20271;-68
2021/04/21 03:36:37;;;;;;;69.07;13.98;;;3.50;1.00;;;;;;5133061;27;20199;-68
2021/04/21 03:39:04;;;;;;;70.68;14.40;;;3.50;1.00;;;;;;5133008;27;20317;-68
2021/04/21 03:41:30;;;;;;;73.25;15.75;;;3.40;1.00;;;;;;5132973;27;20202;-68
2021/04/21 03:43:57;;;;;;;72.43;15.38;;;3.40;1.00;;;;;;5132768;27;20245;-68
2021/04/21 03:46:24;;;;;;;73.38;15.73;;;3.40;1.00;;;;;;5132746;27;20213;-68
2021/04/21 03:48:52;;;;;;;72.25;15.80;;;3.40;1.00;;;;;;5132905;27;20293;-68
2021/04/21 03:51:21;;;;;;;71.38;14.95;;;3.40;1.00;;;;;;5132966;27;20209;-68
2021/04/21 03:53:49;;;;;;;71.38;14.23;;;3.40;1.00;;;;;;5132871;27;20293;-68
2021/04/21 03:56:18;;;;;;;73.93;16.13;;;3.30;1.00;;;;;;5132747;27;20230;-68
2021/04/21 03:58:47;;;;;;;70.80;15.10;;;3.30;1.00;;;;;;5132632;27;20285;-68
2021/04/21 04:01:15;;;;;;;72.93;15.30;;;3.30;1.00;;;;;;5132875;27;20241;-68
2021/04/21 04:03:47;;;;;;;71.93;15.65;;;3.30;1.00;;;;;;5132868;27;20206;-68
2021/04/21 04:06:19;;;;;;;72.63;16.88;;;3.20;1.00;;;;;;5132696;27;20682;-68
2021/04/21 04:08:49;;;;;;;72.55;15.32;;;3.20;1.00;;;;;;5132412;27;20199;-68
2021/04/21 04:11:17;;;;;;;73.55;17.08;;;3.20;1.00;;;;;;5132943;27;20213;-68
2021/04/21 04:13:47;;;;;;;75.10;16.77;;;3.10;1.00;;;;;;5132324;27;20635;-68
2021/04/21 04:16:14;;;;;;;77.65;17.40;;;3.10;1.00;;;;;;5132412;27;20293;-68
2021/04/21 04:18:42;;;;;;;73.22;15.82;;;3.10;1.00;;;;;;5132709;27;20244;-68
2021/04/21 04:21:11;;;;;;;77.22;16.33;;;3.10;1.00;;;;;;5132522;27;20238;-68
2021/04/21 04:23:40;;;;;;;73.88;16.13;;;3.10;1.00;;;;;;5132381;27;20226;-68
2021/04/21 04:26:08;;;;;;;73.43;16.95;;;3.20;1.00;;;;;;5132272;27;20323;-68
2021/04/21 04:28:35;;;;;;;72.32;16.10;;;3.20;1.00;;;;;;5132726;27;20357;-68
2021/04/21 04:31:03;;;;;;;73.18;15.77;;;3.20;1.00;;;;;;5132647;27;20730;-68
2021/04/21 04:33:30;;;;;;;72.20;16.33;;;3.20;1.00;;;;;;5132549;27;20645;-68
2021/04/21 04:35:57;;;;;;;72.18;16.23;;;3.20;1.00;;;;;;5132433;27;20301;-68
2021/04/21 04:38:24;;;;;;;74.60;16.33;;;3.20;1.00;;;;;;5132381;27;20255;-68
2021/04/21 04:40:53;;;;;;;75.88;17.50;;;3.20;1.00;;;;;;5135583;27;20606;-68
2021/04/21 04:43:20;;;;;;;75.65;18.42;;;3.20;1.00;;;;;;5136602;27;20297;-68
2021/04/21 04:45:54;;;;;;;71.43;15.65;;;3.30;1.00;;;;;;5136278;27;20203;-68
2021/04/21 04:48:28;;;;;;;72.53;15.43;;;3.30;1.00;;;;;;5136112;27;20726;-68
2021/04/21 04:51:00;;;;;;;73.63;17.45;;;3.30;1.00;;;;;;5136018;27;20227;-68
2021/04/21 04:53:29;;;;;;;72.60;17.08;;;3.30;1.00;;;;;;5136358;27;20198;-68
2021/04/21 04:55:58;;;;;;;71.13;15.60;;;3.30;1.00;;;;;;5136362;27;20575;-68
2021/04/21 04:58:27;;;;;;;73.38;15.50;;;3.20;1.00;;;;;;5135988;27;20201;-68
2021/04/21 05:00:58;;;;;;;73.43;16.70;;;3.20;1.00;;;;;;5136013;27;20707;-68
2021/04/21 05:03:26;;;;;;;69.43;13.90;;;3.20;1.00;;;;;;5135816;27;20222;-68
2021/04/21 05:05:55;;;;;;;75.03;15.93;;;3.30;1.00;;;;;;5135979;27;20258;-68
2021/04/21 05:08:27;;;;;;;73.00;16.25;;;3.30;1.00;;;;;;5135962;27;20610;-66
2021/04/21 05:11:01;;;;;;;74.78;16.70;;;3.30;1.00;;;;;;5136337;27;20254;-68
2021/04/21 05:13:30;;;;;;;73.40;16.50;;;3.30;1.00;;;;;;5136191;27;20234;-68
2021/04/21 05:16:26;;;;;;;74.10;15.88;;;3.40;1.00;;;;;;5135651;27;20234;-70
2021/04/21 05:19:33;;;;;;;74.28;17.30;;;3.40;1.00;;;;;;5135755;27;20285;-67
2021/04/21 05:22:50;;;;;;;72.70;14.80;;;3.50;1.00;;;;;;5135575;27;20246;-67
2021/04/21 05:25:55;;;;;;;71.40;16.00;;;3.60;1.00;;;;;;5135611;27;20616;-67
2021/04/21 05:28:55;;;;;;;73.00;15.32;;;3.60;1.00;;;;;;5135977;27;20218;-71
2021/04/21 05:32:00;;;;;;;73.13;17.15;;;3.70;1.00;;;;;;5132958;27;20306;-68
2021/04/21 05:35:03;;;;;;;74.70;16.55;;;3.80;1.00;;;;;;5135357;27;20203;-67
2021/04/21 05:38:15;;;;;;;77.10;17.55;;;3.80;1.00;;;;;;5135623;27;20253;-69
2021/04/21 05:40:55;;;;;;;77.28;16.58;;;3.90;1.00;;;;;;5135262;27;20223;-69
2021/04/21 05:43:58;;;;;;;72.22;16.52;;;4.00;1.00;;;;;;5135412;27;20730;-69
2021/04/21 05:47:04;;;;;;;73.85;17.17;;;4.10;1.00;;;;;;5135150;27;20289;-69
2021/04/21 05:50:07;;;;;;;76.45;17.52;;;4.10;1.00;;;;;;5134764;27;20323;-69
2021/04/21 05:53:01;;;;;;;76.70;18.27;;;4.20;1.00;;;;;;5134185;27;20823;-69
2021/04/21 05:56:02;;;;;;;76.00;19.15;;;4.30;1.00;;;;;;5121924;27;20290;-69
2021/04/21 05:58:46;;;;;;;80.63;18.67;;;4.30;1.00;;;;;;5130554;27;20205;-69
2021/04/21 06:01:23;;;;;;;78.22;18.38;;;4.40;1.00;;;;;;5134829;27;20742;-69
2021/04/21 06:03:53;;;;;;;74.95;17.05;;;4.40;1.00;;;;;;5134937;27;20203;-69
2021/04/21 06:06:20;;;;;;;77.70;18.75;;;4.50;1.00;;;;;;5135242;27;20287;-69
2021/04/21 06:08:47;;;;;;;77.60;20.50;;;4.60;1.00;;;;;;5134803;27;20292;-69
2021/04/21 06:11:18;;;;;;;79.47;19.73;;;4.60;1.00;;;;;;5134933;27;20332;-69
2021/04/21 06:13:45;;;;;;;86.40;22.30;;;4.70;1.00;;;;;;5134534;27;20247;-69
2021/04/21 06:16:12;;;;;;;79.75;19.67;;;4.80;1.00;;;;;;5135046;27;20203;-69
2021/04/21 06:18:38;;;;;;;79.30;20.38;;;4.90;1.00;;;;;;5134213;27;20287;-69
2021/04/21 06:21:16;;;;;;;80.55;19.67;;;5.00;1.00;;;;;;5134637;27;20207;-69
2021/04/21 06:23:43;;;;;;;80.70;21.63;;;5.10;1.00;;;;;;5134589;27;20215;-69
2021/04/21 06:26:11;;;;;;;83.32;22.15;;;5.20;1.00;;;;;;5134480;27;20294;-69
2021/04/21 06:28:37;;;;;;;83.88;22.70;;;5.30;1.00;;;;;;5134015;27;20736;-69
2021/04/21 06:31:06;;;;;;;80.20;20.85;;;5.40;1.00;;;;;;5134364;27;20199;-69
2021/04/21 06:33:34;;;;;;;81.30;20.95;;;5.60;1.00;;;;;;5134001;27;20298;-69
2021/04/21 06:36:01;;;;;;;80.35;21.15;;;5.70;1.00;;;;;;5134248;27;20268;-69
2021/04/21 06:38:29;;;;;;;82.28;21.85;;;5.80;1.00;;;;;;5134164;27;20233;-69
2021/04/21 06:40:57;;;;;;;83.05;23.20;;;5.90;1.00;;;;;;5134068;27;20261;-69
2021/04/21 06:43:25;;;;;;;81.93;22.17;;;6.00;1.00;;;;;;5134048;27;20247;-69
2021/04/21 06:45:52;;;;;;;81.95;21.95;;;6.20;1.00;;;;;;5134107;27;20239;-69
2021/04/21 06:48:27;;;;;;;84.43;21.35;;;6.30;1.00;;;;;;5133970;27;20266;-69
2021/04/21 06:50:54;;;;;;;80.07;21.00;;;6.40;1.00;;;;;;5133946;27;20222;-69
2021/04/21 06:53:29;;;;;;;78.72;20.20;;;6.60;1.00;;;;;;5133814;27;20199;-69
2021/04/21 06:55:57;;;;;;;80.95;21.67;;;6.70;1.00;;;;;;5133737;27;20337;-69
2021/04/21 06:58:25;;;;;;;78.72;20.30;;;6.90;1.00;;;;;;5133945;27;20203;-69
2021/04/21 07:00:52;;;;;;;83.55;22.80;;;7.00;1.00;;;;;;5133709;27;20223;-69
2021/04/21 07:03:19;;;;;;;79.38;20.27;;;7.20;1.00;;;;;;5133662;27;20340;-69
2021/04/21 07:05:46;;;;;;;79.93;21.88;;;7.30;1.00;;;;;;5133769;27;20213;-69
2021/04/21 07:08:14;;;;;;;77.22;19.65;;;7.40;1.00;;;;;;5133237;27;20591;-69
2021/04/21 07:10:45;;;;;;;81.38;21.83;;;7.60;1.00;;;;;;5133558;27;20269;-69
2021/04/21 07:13:18;;;;;;;81.43;21.20;;;7.70;1.00;;;;;;5133326;27;20244;-69
2021/04/21 07:15:45;;;;;;;79.30;21.90;;;7.90;1.00;;;;;;5133493;27;20239;-69
2021/04/21 07:18:14;;;;;;;78.70;19.70;;;8.00;1.00;;;;;;5133340;27;20446;-69
2021/04/21 07:20:41;;;;;;;81.20;22.10;;;8.20;1.00;;;;;;5133356;27;20492;-69
2021/04/21 07:23:09;;;;;;;82.22;21.80;;;8.30;1.00;;;;;;5133195;27;20925;-69
2021/04/21 07:25:38;;;;;;;79.87;22.47;;;8.50;1.00;;;;;;5133390;27;20209;-69
2021/04/21 07:28:05;;;;;;;76.40;19.00;;;8.70;1.00;;;;;;5133177;27;20574;-69
2021/04/21 07:30:33;;;;;;;79.80;19.77;;;8.80;1.00;;;;;;5132367;27;20492;-67
2021/04/21 07:33:00;;;;;;;77.53;20.90;;;9.00;1.00;;;;;;5132566;27;20457;-68
2021/04/21 07:35:29;;;;;;;78.07;19.60;;;9.10;1.00;;;;;;5133402;27;20458;-68
2021/04/21 07:37:57;;;;;;;81.17;22.07;;;9.30;1.00;;;;;;5133071;27;20511;-68
2021/04/21 07:40:27;;;;;;;77.67;18.90;;;9.40;1.00;;;;;;5133095;27;20499;-68
2021/04/21 07:43:09;;;;;;;78.60;20.70;;;9.60;1.00;;;;;;5133243;27;20504;-68
2021/04/21 07:45:54;;;;;;;78.00;20.97;;;9.70;1.00;;;;;;5133285;27;20451;-68
2021/04/21 07:48:45;;;;;;;77.93;19.90;;;9.90;1.00;;;;;;5133099;27;20478;-68
2021/04/21 07:51:30;;;;;;;75.40;18.97;;;10.10;1.00;;;;;;5133202;27;20499;-68
2021/04/21 07:54:01;;;;;;;78.90;21.10;;;10.30;1.00;;;;;;5132675;27;21054;-68
2021/04/21 07:56:34;;;;;;;78.37;20.27;;;10.50;1.00;;;;;;5132834;27;20446;-69
2021/04/21 07:59:13;;;;;;;80.40;20.03;;;10.60;1.00;;;;;;5133213;27;20517;-68
2021/04/21 08:01:40;;;;;;;73.87;17.90;;;10.80;1.00;;;;;;5133141;27;20531;-68
2021/04/21 08:04:15;;;;;;;71.70;17.43;;;10.90;1.00;;;;;;5132716;27;20482;-68
2021/04/21 08:06:42;;;;;;;80.10;20.63;;;11.10;1.00;;;;;;5132544;27;20539;-68
2021/04/21 08:09:08;;;;;;;76.30;19.10;;;11.20;1.00;;;;;;5132528;27;20520;-68
2021/04/21 08:11:35;;;;;;;76.87;19.90;;;11.40;1.00;;;;;;5132803;27;20536;-69
2021/04/21 08:14:01;;;;;;;81.63;21.03;;;11.50;1.00;;;;;;5132740;27;20823;-69
2021/04/21 08:16:30;;;;;;;76.17;20.50;;;11.70;1.00;;;;;;5136858;27;20523;-68
2021/04/21 08:18:58;;;;;;;76.97;20.20;;;11.80;1.00;;;;;;5136929;27;20464;-68
2021/04/21 08:21:35;;;;;;;75.13;18.60;;;12.00;1.00;;;;;;5136735;27;20451;-69
2021/04/21 08:24:03;;;;;;;76.23;19.63;;;12.20;1.00;;;;;;5136812;27;20480;-69
2021/04/21 08:26:29;;;;;;;75.90;19.50;;;12.30;1.00;;;;;;5136985;27;20807;-68
2021/04/21 08:28:56;;;;;;;74.83;18.30;;;12.50;1.00;;;;;;5136689;27;20523;-68
2021/04/21 08:31:28;;;;;;;70.47;16.50;;;12.60;1.00;;;;;;5136581;27;20448;-68
2021/04/21 08:33:54;;;;;;;76.57;20.10;;;12.80;1.00;;;;;;5136429;27;20539;-69
2021/04/21 08:36:22;;;;;;;74.77;18.80;;;13.00;1.00;;;;;;5136666;27;20474;-69
2021/04/21 08:38:49;;;;;;;72.90;17.53;;;13.20;1.00;;;;;;5136310;27;20455;-69
2021/04/21 08:41:18;;;;;;;77.13;19.43;;;13.30;1.00;;;;;;5136648;27;20874;-68
2021/04/21 08:43:47;;;;;;;74.33;18.77;;;13.50;1.00;;;;;;5136322;27;20448;-69
2021/04/21 08:46:14;;;;;;;74.13;16.63;;;13.60;1.00;;;;;;5136317;27;20448;-69
2021/04/21 08:48:41;;;;;;;72.47;15.90;;;13.70;1.00;;;;;;5136002;27;20571;-68
2021/04/21 08:51:10;;;;;;;73.70;17.43;;;13.90;1.00;;;;;;5136669;27;20501;-69
2021/04/21 08:53:41;;;;;;;73.70;16.77;;;14.10;1.00;;;;;;5136007;27;20445;-69
2021/04/21 08:56:12;;;;;;;76.43;17.40;;;14.30;1.00;;;;;;5136234;27;20444;-69
2021/04/21 08:58:39;;;;;;;72.80;16.60;;;14.40;1.00;;;;;;5136127;27;20445;-69
2021/04/21 09:01:06;;;;;;;70.87;17.20;;;14.60;1.00;;;;;;5136111;27;20480;-69
2021/04/21 09:03:35;;;;;;;70.27;15.40;;;14.70;1.00;;;;;;5136125;27;20444;-69
2021/04/21 09:06:03;;;;;;;71.37;16.80;;;14.90;1.00;;;;;;5136076;27;20525;-69
2021/04/21 09:08:30;;;;;;;71.80;16.13;;;15.00;1.00;;;;;;5135894;27;20529;-69
2021/04/21 09:10:57;;;;;;;72.00;15.30;;;15.10;1.00;;;;;;5135663;27;20471;-69
2021/04/21 09:13:24;;;;;;;67.67;13.60;;;15.20;1.00;;;;;;5135848;27;20471;-69
2021/04/21 09:15:52;;;;;;;67.87;14.60;;;15.40;1.00;;;;;;5135980;27;20530;-69
2021/04/21 09:18:25;;;;;;;67.17;14.10;;;15.60;1.00;;;;;;5136021;27;20574;-69
2021/04/21 09:20:51;;;;;;;65.90;11.93;;;15.80;1.00;;;;;;5135760;27;20553;-67
2021/04/21 09:23:19;;;;;;;67.27;12.37;;;16.10;1.00;;;;;;5135582;27;20476;-69
2021/04/21 09:25:47;;;;;;;69.07;14.80;;;16.40;1.00;;;;;;5134825;27;20449;-69
2021/04/21 09:28:15;;;;;;;66.50;12.77;;;16.60;1.00;;;;;;5135145;27;20613;-67
2021/04/21 09:30:45;;;;;;;68.10;12.90;;;16.70;1.00;;;;;;5135594;27;20658;-68
2021/04/21 09:33:11;;;;;;;66.40;13.00;;;16.90;1.00;;;;;;5135780;27;20541;-68
2021/04/21 09:35:40;;;;;;;69.23;12.30;;;17.10;1.00;;;;;;5135522;27;20486;-68
2021/04/21 09:38:10;;;;;;;65.40;10.97;;;17.40;1.00;;;;;;5135244;27;20448;-68
2021/04/21 09:40:40;;;;;;;66.00;11.47;;;17.70;1.00;;;;;;5135092;27;20502;-69
2021/04/21 09:43:08;;;;;;;64.70;11.93;;;18.00;1.00;;;;;;5135453;27;20452;-68
2021/04/21 09:45:41;;;;;;;67.87;13.63;;;18.20;1.00;;;;;;5135276;27;20486;-68
2021/04/21 09:48:10;;;;;;;68.50;13.40;;;18.40;1.00;;;;;;5135294;27;20490;-69
2021/04/21 09:50:37;;;;;;;67.67;13.27;;;18.50;1.00;;;;;;5135127;27;20551;-69
2021/04/21 09:53:18;;;;;;;67.77;13.20;;;18.80;1.00;;;;;;5135710;27;20496;-69
2021/04/21 09:56:01;;;;;;;65.60;11.07;;;19.00;1.00;;;;;;5135140;27;20440;-69
2021/04/21 09:58:29;;;;;;;63.40;10.23;;;19.40;1.00;;;;;;5135008;27;20535;-69
2021/04/21 10:00:57;;;;;;;64.67;10.27;;;19.70;1.00;;;;;;5135034;27;20496;-69
2021/04/21 10:03:23;;;;;;;64.10;11.13;;;20.10;1.00;;;;;;5134741;27;20543;-69
2021/04/21 10:05:49;;;;;;;71.73;13.07;;;20.40;1.00;;;;;;5135020;27;20809;-69
2021/04/21 10:08:18;;;;;;;67.30;13.87;;;21.30;1.00;;;;;;5134754;27;20479;-69
2021/04/21 10:10:46;;;;;;;65.87;13.80;;;22.40;1.00;;;;;;5134670;27;20976;-68
2021/04/21 10:13:14;;;;;;;68.57;13.73;;;23.60;1.00;;;;;;5134785;27;20482;-69
2021/04/21 10:15:41;;;;;;;65.90;13.10;;;24.70;1.00;;;;;;5134917;27;20535;-69
2021/04/21 10:18:09;;;;;;;68.83;13.80;;;25.80;1.00;;;;;;5134474;27;20441;-69
2021/04/21 10:20:35;;;;;;;65.03;12.10;;;26.60;1.00;;;;;;5134453;27;20463;-69
2021/04/21 10:23:05;;;;;;;66.23;10.97;;;27.20;1.00;;;;;;5134878;27;20538;-69
2021/04/21 10:25:31;;;;;;;62.47;10.60;;;27.50;1.00;;;;;;5134505;27;20860;-69
2021/04/21 10:27:59;;;;;;;61.50;9.50;;;27.30;1.00;;;;;;5134244;27;20570;-69
2021/04/21 10:30:26;;;;;;;66.20;10.60;;;27.60;1.00;;;;;;5134273;27;20568;-69
2021/04/21 10:32:53;;;;;;;63.00;10.27;;;28.30;1.00;;;;;;5134067;27;20527;-69
2021/04/21 10:35:20;;;;;;;62.97;9.63;;;29.00;1.00;;;;;;5134162;27;20541;-69
2021/04/21 10:37:47;;;;;;;62.70;10.20;;;29.50;1.00;;;;;;5133782;27;20466;-69
2021/04/21 10:40:25;;;;;;;62.33;9.40;;;30.00;1.00;;;;;;5134018;27;20501;-67
2021/04/21 10:42:54;;;;;;;62.07;10.30;;;30.50;1.00;;;;;;5134336;27;20463;-67
2021/04/21 10:45:24;;;;;;;63.10;10.30;;;31.00;1.00;;;;;;5134203;27;20448;-69
2021/04/21 10:47:51;;;;;;;62.40;11.10;;;31.20;1.00;;;;;;5134214;27;20490;-68
2021/04/21 10:53:22;;;;;;;62.20;10.33;;;31.40;1.00;;;;;;5109746;27;20843;-69
2021/04/21 10:55:49;;;;;;;60.80;9.80;;;31.80;1.00;;;;;;5109097;28;20493;-68
2021/04/21 10:58:15;;;;;;;63.03;11.87;;;32.00;1.00;;;;;;5110642;28;20497;-69
2021/04/21 11:00:47;;;;;;;63.63;11.97;;;32.10;1.00;;;;;;5110850;28;21008;-69
2021/04/21 11:03:15;;;;;;;62.67;11.67;;;31.90;1.00;;;;;;5111037;28;20450;-69
2021/04/21 11:05:46;;;;;;;67.10;11.70;;;31.90;1.00;;;;;;5110663;28;20523;-69
2021/04/21 11:08:16;;;;;;;63.00;12.20;;;32.40;1.00;;;;;;5110266;28;20958;-70
2021/04/21 11:10:51;;;;;;;62.57;11.10;;;32.60;1.00;;;;;;5110760;28;20550;-70
2021/04/21 11:13:33;;;;;;;62.87;11.97;;;32.70;1.00;;;;;;5110403;28;20459;-70
2021/04/21 11:15:59;;;;;;;62.90;11.47;;;33.00;1.00;;;;;;5110403;28;20514;-70
2021/04/21 11:18:27;;;;;;;63.50;12.50;;;33.00;1.00;;;;;;5110366;28;20922;-70
2021/04/21 11:20:59;;;;;;;64.27;12.23;;;33.00;1.00;;;;;;5110600;28;20465;-70
2021/04/21 11:23:52;;;;;;;62.80;12.23;;;32.80;1.00;;;;;;5110298;28;20437;-70
2021/04/21 11:26:40;;;;;;;63.87;12.00;;;33.00;1.00;;;;;;5110248;28;20544;-70
2021/04/21 11:29:09;;;;;;;64.30;13.83;;;33.30;1.00;;;;;;5109715;28;20500;-70
2021/04/21 11:32:09;;;;;;;63.17;12.30;;;33.90;1.00;;;;;;5110662;28;20487;-70
2021/04/21 11:34:36;;;;;;;64.70;12.90;;;34.30;1.00;;;;;;5110871;28;20450;-70
2021/04/21 11:37:04;;;;;;;64.07;12.87;;;34.50;1.00;;;;;;5110903;28;20465;-70
2021/04/21 11:40:08;;;;;;;63.10;12.20;;;34.60;1.00;;;;;;5110335;28;20495;-70
2021/04/21 11:42:41;;;;;;;66.40;12.80;;;34.80;1.00;;;;;;5109045;28;20896;-70
2021/04/21 11:45:27;;;;;;;62.60;11.23;;;35.10;1.00;;;;;;5110509;28;20539;-70
2021/04/21 11:47:55;;;;;;;62.33;11.83;;;35.10;1.00;;;;;;5111045;28;20926;-70
2021/04/21 11:50:24;;;;;;;62.90;13.10;;;35.30;1.00;;;;;;5110838;28;20501;-70
2021/04/21 11:52:55;;;;;;;63.37;11.00;;;35.10;1.00;;;;;;5110045;28;20926;-70
2021/04/21 11:55:26;;;;;;;61.90;10.57;;;35.50;1.00;;;;;;5110778;28;20485;-70
2021/04/21 11:57:58;;;;;;;65.30;12.20;;;36.10;1.00;;;;;;5110507;28;20485;-70
2021/04/21 12:00:34;;;;;;;62.07;11.00;;;36.20;1.00;;;;;;5110334;28;20511;-70
2021/04/21 12:03:01;;;;;;;62.10;10.50;;;36.30;1.00;;;;;;5105444;28;20438;-70
2021/04/21 12:05:32;;;;;;;62.77;11.90;;;36.20;1.00;;;;;;5096646;28;20867;-69
2021/04/21 12:07:59;;;;;;;62.60;11.80;;;36.30;1.00;;;;;;5096548;28;20450;-69
2021/04/21 12:10:29;;;;;;;61.77;11.13;;;36.70;1.00;;;;;;5096006;28;21013;-69
2021/04/21 12:13:16;;;;;;;62.40;11.27;;;37.20;1.00;;;;;;5096529;28;20486;-69
2021/04/21 12:15:43;;;;;;;62.50;11.13;;;37.60;1.00;;;;;;5096939;28;20525;-69
2021/04/21 12:18:09;;;;;;;60.40;9.93;;;37.80;1.00;;;;;;5095998;28;20442;-69
2021/04/21 12:20:36;;;;;;;64.93;10.10;;;37.60;1.00;;;;;;5096207;28;20554;-69
2021/04/21 12:23:03;;;;;;;61.40;9.43;;;37.70;1.00;;;;;;5095673;28;20466;-69
2021/04/21 12:25:31;;;;;;;62.87;9.53;;;37.40;1.00;;;;;;5096054;28;20538;-69
2021/04/21 12:28:00;;;;;;;61.87;10.10;;;37.50;1.00;;;;;;5096423;28;20484;-69
2021/04/21 12:30:31;;;;;;;60.57;8.53;;;38.00;1.00;;;;;;5095792;28;20463;-69
2021/04/21 12:33:06;;;;;;;59.50;8.40;;;38.50;1.00;;;;;;5095618;28;20482;-69
2021/04/21 12:35:32;;;;;;;60.00;8.20;;;38.20;1.00;;;;;;5095651;28;21017;-69
2021/04/21 12:38:00;;;;;;;59.67;8.93;;;37.50;1.00;;;;;;5096308;28;20523;-69
2021/04/21 12:40:29;;;;;;;59.37;7.77;;;37.20;1.00;;;;;;5095796;28;20468;-69
2021/04/21 12:43:10;;;;;;;60.80;8.70;;;37.00;1.00;;;;;;5095784;28;20450;-69
2021/04/21 12:45:38;;;;;;;61.53;9.90;;;37.30;1.00;;;;;;5095427;28;20454;-69
2021/04/21 12:48:22;;;;;;;60.40;8.80;;;37.50;1.00;;;;;;5095269;28;20449;-69
2021/04/21 12:50:49;;;;;;;61.17;8.23;;;37.60;1.00;;;;;;5095389;28;20462;-69
2021/04/21 12:53:18;;;;;;;61.13;9.03;;;37.70;1.00;;;;;;5095884;28;20521;-69
2021/04/21 12:55:45;;;;;;;59.77;8.07;;;37.80;1.00;;;;;;5095486;28;20481;-68
2021/04/21 12:58:12;;;;;;;59.90;8.37;;;37.90;1.00;;;;;;5095864;28;20442;-69
2021/04/21 13:00:40;;;;;;;59.20;7.30;;;37.80;1.00;;;;;;5094954;28;21041;-69
2021/04/21 13:03:17;;;;;;;60.20;7.07;;;37.80;1.00;;;;;;5095392;28;20449;-69
2021/04/21 13:05:48;;;;;;;59.07;7.33;;;37.70;1.00;;;;;;5095816;28;20469;-70
2021/04/21 13:08:22;;;;;;;58.97;6.83;;;37.20;1.00;;;;;;5095221;28;20861;-70
2021/04/21 13:10:49;;;;;;;59.77;7.17;;;36.80;1.00;;;;;;5094992;28;20502;-70